sensor_id;sensor_type;location;lat;lon;timestamp;P1;durP1;ratioP1;P2;durP2;ratioP2
49614;SDS011;35517;45.272;9.984;2023-05-10T00:02:25;19.85;;;13.75;;
49614;SDS011;35517;45.272;9.984;2023-05-10T00:04:52;14.98;;;12.13;;
49614;SDS011;35517;45.272;9.984;2023-05-10T00:07:18;19.88;;;14.98;;
49614;SDS011;35517;45.272;9.984;2023-05-10T00:09:45;20.27;;;16.20;;
49614;SDS011;35517;45.272;9.984;2023-05-10T00:12:11;21.35;;;15.82;;
49614;SDS011;35517;45.272;9.984;2023-05-10T00:14:38;19.45;;;15.50;;
49614;SDS011;35517;45.272;9.984;2023-05-10T00:17:04;17.50;;;14.20;;
49614;SDS011;35517;45.272;9.984;2023-05-10T00:19:31;19.50;;;16.88;;
49614;SDS011;35517;45.272;9.984;2023-05-10T00:21:58;17.08;;;13.80;;
49614;SDS011;35517;45.272;9.984;2023-05-10T00:24:24;18.08;;;16.15;;
49614;SDS011;35517;45.272;9.984;2023-05-10T00:26:50;23.70;;;16.20;;
49614;SDS011;35517;45.272;9.984;2023-05-10T00:29:17;25.88;;;17.83;;
49614;SDS011;35517;45.272;9.984;2023-05-10T00:31:44;23.42;;;18.15;;
49614;SDS011;35517;45.272;9.984;2023-05-10T00:34:10;22.77;;;18.58;;
49614;SDS011;35517;45.272;9.984;2023-05-10T00:36:37;22.35;;;17.48;;
49614;SDS011;35517;45.272;9.984;2023-05-10T00:39:03;22.35;;;18.42;;
49614;SDS011;35517;45.272;9.984;2023-05-10T00:41:30;25.85;;;19.55;;
49614;SDS011;35517;45.272;9.984;2023-05-10T00:43:59;22.40;;;16.52;;
49614;SDS011;35517;45.272;9.984;2023-05-10T00:46:26;28.08;;;20.42;;
49614;SDS011;35517;45.272;9.984;2023-05-10T00:48:53;30.60;;;20.88;;
49614;SDS011;35517;45.272;9.984;2023-05-10T00:51:20;30.98;;;19.23;;
49614;SDS011;35517;45.272;9.984;2023-05-10T00:53:46;28.00;;;20.55;;
49614;SDS011;35517;45.272;9.984;2023-05-10T00:56:14;30.65;;;21.80;;
49614;SDS011;35517;45.272;9.984;2023-05-10T00:58:41;30.48;;;20.55;;
49614;SDS011;35517;45.272;9.984;2023-05-10T01:01:08;28.40;;;18.48;;
49614;SDS011;35517;45.272;9.984;2023-05-10T01:03:36;28.23;;;17.30;;
49614;SDS011;35517;45.272;9.984;2023-05-10T01:06:03;21.17;;;17.35;;
49614;SDS011;35517;45.272;9.984;2023-05-10T01:08:29;28.35;;;18.83;;
49614;SDS011;35517;45.272;9.984;2023-05-10T01:10:56;25.58;;;18.40;;
49614;SDS011;35517;45.272;9.984;2023-05-10T01:13:56;33.67;;;20.02;;
49614;SDS011;35517;45.272;9.984;2023-05-10T01:16:15;28.60;;;18.88;;
49614;SDS011;35517;45.272;9.984;2023-05-10T01:18:42;25.58;;;18.60;;
49614;SDS011;35517;45.272;9.984;2023-05-10T01:36:32;35.30;;;20.40;;
49614;SDS011;35517;45.272;9.984;2023-05-10T01:41:36;41.15;;;24.17;;
49614;SDS011;35517;45.272;9.984;2023-05-10T01:44:12;35.47;;;22.45;;
49614;SDS011;35517;45.272;9.984;2023-05-10T01:46:45;31.80;;;20.52;;
49614;SDS011;35517;45.272;9.984;2023-05-10T01:49:19;39.03;;;23.42;;
49614;SDS011;35517;45.272;9.984;2023-05-10T01:51:49;37.53;;;23.45;;
49614;SDS011;35517;45.272;9.984;2023-05-10T01:54:19;36.38;;;23.05;;
49614;SDS011;35517;45.272;9.984;2023-05-10T01:56:47;37.60;;;22.50;;
49614;SDS011;35517;45.272;9.984;2023-05-10T01:59:17;30.23;;;20.13;;
49614;SDS011;35517;45.272;9.984;2023-05-10T02:01:44;32.63;;;21.83;;
49614;SDS011;35517;45.272;9.984;2023-05-10T02:04:11;45.20;;;20.80;;
49614;SDS011;35517;45.272;9.984;2023-05-10T02:06:41;47.20;;;23.95;;
49614;SDS011;35517;45.272;9.984;2023-05-10T02:09:08;47.80;;;24.15;;
49614;SDS011;35517;45.272;9.984;2023-05-10T02:11:39;52.80;;;26.30;;
49614;SDS011;35517;45.272;9.984;2023-05-10T02:14:07;52.85;;;26.33;;
49614;SDS011;35517;45.272;9.984;2023-05-10T02:16:35;44.38;;;23.38;;
49614;SDS011;35517;45.272;9.984;2023-05-10T02:19:02;56.38;;;26.90;;
49614;SDS011;35517;45.272;9.984;2023-05-10T02:21:29;58.88;;;26.05;;
49614;SDS011;35517;45.272;9.984;2023-05-10T02:23:56;41.03;;;21.48;;
49614;SDS011;35517;45.272;9.984;2023-05-10T02:26:23;38.28;;;19.63;;
49614;SDS011;35517;45.272;9.984;2023-05-10T02:28:50;48.85;;;24.88;;
49614;SDS011;35517;45.272;9.984;2023-05-10T02:31:17;53.42;;;27.85;;
49614;SDS011;35517;45.272;9.984;2023-05-10T02:33:44;52.72;;;26.15;;
49614;SDS011;35517;45.272;9.984;2023-05-10T02:36:12;55.20;;;26.48;;
49614;SDS011;35517;45.272;9.984;2023-05-10T02:38:39;58.80;;;27.38;;
49614;SDS011;35517;45.272;9.984;2023-05-10T02:41:06;61.42;;;28.73;;
49614;SDS011;35517;45.272;9.984;2023-05-10T02:43:34;47.20;;;22.15;;
49614;SDS011;35517;45.272;9.984;2023-05-10T02:46:01;51.42;;;24.92;;
49614;SDS011;35517;45.272;9.984;2023-05-10T02:48:28;48.08;;;23.10;;
49614;SDS011;35517;45.272;9.984;2023-05-10T02:50:55;50.75;;;25.92;;
49614;SDS011;35517;45.272;9.984;2023-05-10T02:53:23;49.50;;;25.02;;
49614;SDS011;35517;45.272;9.984;2023-05-10T02:55:50;42.83;;;21.20;;
49614;SDS011;35517;45.272;9.984;2023-05-10T02:58:18;30.08;;;14.85;;
49614;SDS011;35517;45.272;9.984;2023-05-10T03:00:45;28.48;;;17.02;;
49614;SDS011;35517;45.272;9.984;2023-05-10T03:03:12;30.85;;;14.93;;
49614;SDS011;35517;45.272;9.984;2023-05-10T03:05:38;26.77;;;16.30;;
49614;SDS011;35517;45.272;9.984;2023-05-10T03:08:05;30.90;;;16.08;;
49614;SDS011;35517;45.272;9.984;2023-05-10T03:10:32;21.98;;;10.60;;
49614;SDS011;35517;45.272;9.984;2023-05-10T03:15:47;22.90;;;11.80;;
49614;SDS011;35517;45.272;9.984;2023-05-10T03:18:16;19.40;;;11.35;;
49614;SDS011;35517;45.272;9.984;2023-05-10T03:20:46;23.52;;;11.27;;
49614;SDS011;35517;45.272;9.984;2023-05-10T03:23:26;17.20;;;8.93;;
49614;SDS011;35517;45.272;9.984;2023-05-10T03:25:53;21.55;;;9.98;;
49614;SDS011;35517;45.272;9.984;2023-05-10T03:28:20;20.48;;;11.20;;
49614;SDS011;35517;45.272;9.984;2023-05-10T03:30:47;24.60;;;9.43;;
49614;SDS011;35517;45.272;9.984;2023-05-10T03:33:14;17.67;;;10.85;;
49614;SDS011;35517;45.272;9.984;2023-05-10T03:35:44;15.13;;;8.07;;
49614;SDS011;35517;45.272;9.984;2023-05-10T03:38:14;17.88;;;9.15;;
49614;SDS011;35517;45.272;9.984;2023-05-10T03:40:41;16.38;;;9.57;;
49614;SDS011;35517;45.272;9.984;2023-05-10T03:43:07;19.58;;;11.30;;
49614;SDS011;35517;45.272;9.984;2023-05-10T03:45:34;16.80;;;10.02;;
49614;SDS011;35517;45.272;9.984;2023-05-10T03:48:01;18.38;;;10.05;;
49614;SDS011;35517;45.272;9.984;2023-05-10T03:50:27;15.15;;;8.52;;
49614;SDS011;35517;45.272;9.984;2023-05-10T03:52:54;19.05;;;9.77;;
49614;SDS011;35517;45.272;9.984;2023-05-10T03:55:20;16.15;;;8.52;;
49614;SDS011;35517;45.272;9.984;2023-05-10T03:57:48;15.73;;;8.57;;
49614;SDS011;35517;45.272;9.984;2023-05-10T04:00:15;16.70;;;10.13;;
49614;SDS011;35517;45.272;9.984;2023-05-10T04:02:41;17.55;;;10.00;;
49614;SDS011;35517;45.272;9.984;2023-05-10T04:05:12;23.08;;;9.88;;
49614;SDS011;35517;45.272;9.984;2023-05-10T04:07:39;19.13;;;9.93;;
49614;SDS011;35517;45.272;9.984;2023-05-10T04:10:05;18.48;;;9.02;;
49614;SDS011;35517;45.272;9.984;2023-05-10T04:12:32;20.20;;;10.20;;
49614;SDS011;35517;45.272;9.984;2023-05-10T04:14:59;18.30;;;10.48;;
49614;SDS011;35517;45.272;9.984;2023-05-10T04:17:25;13.32;;;7.38;;
49614;SDS011;35517;45.272;9.984;2023-05-10T04:19:52;12.68;;;7.57;;
49614;SDS011;35517;45.272;9.984;2023-05-10T04:22:20;18.38;;;8.95;;
49614;SDS011;35517;45.272;9.984;2023-05-10T04:24:46;15.60;;;9.18;;
49614;SDS011;35517;45.272;9.984;2023-05-10T04:27:13;19.52;;;8.93;;
49614;SDS011;35517;45.272;9.984;2023-05-10T04:32:09;16.02;;;8.35;;
49614;SDS011;35517;45.272;9.984;2023-05-10T04:34:36;19.98;;;9.68;;
49614;SDS011;35517;45.272;9.984;2023-05-10T04:37:02;16.60;;;8.45;;
49614;SDS011;35517;45.272;9.984;2023-05-10T04:39:29;18.33;;;7.75;;
49614;SDS011;35517;45.272;9.984;2023-05-10T04:41:55;19.55;;;9.15;;
49614;SDS011;35517;45.272;9.984;2023-05-10T04:44:22;10.80;;;6.43;;
49614;SDS011;35517;45.272;9.984;2023-05-10T04:46:48;14.55;;;8.63;;
49614;SDS011;35517;45.272;9.984;2023-05-10T04:49:17;15.90;;;8.30;;
49614;SDS011;35517;45.272;9.984;2023-05-10T04:51:44;18.10;;;7.63;;
49614;SDS011;35517;45.272;9.984;2023-05-10T04:54:12;12.80;;;7.88;;
49614;SDS011;35517;45.272;9.984;2023-05-10T04:56:38;16.75;;;8.20;;
49614;SDS011;35517;45.272;9.984;2023-05-10T04:59:06;10.73;;;6.68;;
49614;SDS011;35517;45.272;9.984;2023-05-10T05:01:32;0.10;;;0.10;;
49614;SDS011;35517;45.272;9.984;2023-05-10T05:03:59;0.00;;;0.00;;
49614;SDS011;35517;45.272;9.984;2023-05-10T05:06:26;0.10;;;0.10;;
49614;SDS011;35517;45.272;9.984;2023-05-10T05:08:52;0.25;;;0.25;;
49614;SDS011;35517;45.272;9.984;2023-05-10T05:11:22;0.00;;;0.00;;
49614;SDS011;35517;45.272;9.984;2023-05-10T05:13:49;0.10;;;0.10;;
49614;SDS011;35517;45.272;9.984;2023-05-10T05:16:15;0.45;;;0.45;;
49614;SDS011;35517;45.272;9.984;2023-05-10T05:18:43;0.13;;;0.13;;
49614;SDS011;35517;45.272;9.984;2023-05-10T05:21:13;0.22;;;0.22;;
49614;SDS011;35517;45.272;9.984;2023-05-10T05:23:41;0.30;;;0.30;;
49614;SDS011;35517;45.272;9.984;2023-05-10T05:26:08;0.20;;;0.20;;
49614;SDS011;35517;45.272;9.984;2023-05-10T05:28:35;0.03;;;0.03;;
49614;SDS011;35517;45.272;9.984;2023-05-10T05:31:06;0.00;;;0.00;;
49614;SDS011;35517;45.272;9.984;2023-05-10T05:33:33;1.20;;;1.10;;
49614;SDS011;35517;45.272;9.984;2023-05-10T05:36:00;0.00;;;0.00;;
49614;SDS011;35517;45.272;9.984;2023-05-10T05:38:27;0.00;;;0.00;;
49614;SDS011;35517;45.272;9.984;2023-05-10T05:40:53;0.43;;;0.43;;
49614;SDS011;35517;45.272;9.984;2023-05-10T05:43:22;0.00;;;0.00;;
49614;SDS011;35517;45.272;9.984;2023-05-10T05:45:49;0.10;;;0.10;;
49614;SDS011;35517;45.272;9.984;2023-05-10T05:48:15;0.75;;;0.57;;
49614;SDS011;35517;45.272;9.984;2023-05-10T05:50:42;1.25;;;1.08;;
49614;SDS011;35517;45.272;9.984;2023-05-10T05:53:08;0.63;;;0.57;;
49614;SDS011;35517;45.272;9.984;2023-05-10T05:55:35;0.22;;;0.22;;
49614;SDS011;35517;45.272;9.984;2023-05-10T05:58:01;0.00;;;0.00;;
49614;SDS011;35517;45.272;9.984;2023-05-10T06:00:28;0.00;;;0.00;;
49614;SDS011;35517;45.272;9.984;2023-05-10T06:02:55;0.10;;;0.10;;
49614;SDS011;35517;45.272;9.984;2023-05-10T06:05:22;0.10;;;0.10;;
49614;SDS011;35517;45.272;9.984;2023-05-10T06:07:49;0.00;;;0.00;;
49614;SDS011;35517;45.272;9.984;2023-05-10T06:10:16;0.00;;;0.00;;
49614;SDS011;35517;45.272;9.984;2023-05-10T06:12:42;0.47;;;0.47;;
49614;SDS011;35517;45.272;9.984;2023-05-10T06:15:09;0.08;;;0.08;;
49614;SDS011;35517;45.272;9.984;2023-05-10T06:17:35;0.00;;;0.00;;
49614;SDS011;35517;45.272;9.984;2023-05-10T06:20:02;0.82;;;0.80;;
49614;SDS011;35517;45.272;9.984;2023-05-10T06:22:28;0.05;;;0.05;;
49614;SDS011;35517;45.272;9.984;2023-05-10T06:24:55;0.10;;;0.10;;
49614;SDS011;35517;45.272;9.984;2023-05-10T06:27:21;0.35;;;0.35;;
49614;SDS011;35517;45.272;9.984;2023-05-10T06:29:48;0.00;;;0.00;;
49614;SDS011;35517;45.272;9.984;2023-05-10T06:32:15;0.08;;;0.08;;
49614;SDS011;35517;45.272;9.984;2023-05-10T06:34:41;1.88;;;0.38;;
49614;SDS011;35517;45.272;9.984;2023-05-10T06:37:09;0.15;;;0.15;;
49614;SDS011;35517;45.272;9.984;2023-05-10T06:39:36;0.70;;;0.45;;
49614;SDS011;35517;45.272;9.984;2023-05-10T06:42:02;0.52;;;0.52;;
49614;SDS011;35517;45.272;9.984;2023-05-10T06:44:32;0.00;;;0.00;;
49614;SDS011;35517;45.272;9.984;2023-05-10T06:46:58;0.00;;;0.00;;
49614;SDS011;35517;45.272;9.984;2023-05-10T06:49:25;0.03;;;0.03;;
49614;SDS011;35517;45.272;9.984;2023-05-10T06:51:51;0.75;;;0.75;;
49614;SDS011;35517;45.272;9.984;2023-05-10T06:54:18;0.52;;;0.52;;
49614;SDS011;35517;45.272;9.984;2023-05-10T06:56:44;0.77;;;0.70;;
49614;SDS011;35517;45.272;9.984;2023-05-10T06:59:10;0.00;;;0.00;;
49614;SDS011;35517;45.272;9.984;2023-05-10T07:01:39;0.00;;;0.00;;
49614;SDS011;35517;45.272;9.984;2023-05-10T07:04:06;0.00;;;0.00;;
49614;SDS011;35517;45.272;9.984;2023-05-10T07:06:33;0.20;;;0.20;;
49614;SDS011;35517;45.272;9.984;2023-05-10T07:08:59;0.00;;;0.00;;
49614;SDS011;35517;45.272;9.984;2023-05-10T07:11:26;0.00;;;0.00;;
49614;SDS011;35517;45.272;9.984;2023-05-10T07:13:53;0.10;;;0.10;;
49614;SDS011;35517;45.272;9.984;2023-05-10T07:16:19;0.43;;;0.40;;
49614;SDS011;35517;45.272;9.984;2023-05-10T07:18:46;0.10;;;0.10;;
49614;SDS011;35517;45.272;9.984;2023-05-10T07:21:13;0.00;;;0.00;;
49614;SDS011;35517;45.272;9.984;2023-05-10T07:23:40;0.10;;;0.10;;
49614;SDS011;35517;45.272;9.984;2023-05-10T07:26:06;0.00;;;0.00;;
49614;SDS011;35517;45.272;9.984;2023-05-10T07:28:32;0.00;;;0.00;;
49614;SDS011;35517;45.272;9.984;2023-05-10T07:30:59;0.00;;;0.00;;
49614;SDS011;35517;45.272;9.984;2023-05-10T07:33:26;0.00;;;0.00;;
49614;SDS011;35517;45.272;9.984;2023-05-10T07:35:52;0.85;;;0.47;;
49614;SDS011;35517;45.272;9.984;2023-05-10T07:38:19;0.00;;;0.00;;
49614;SDS011;35517;45.272;9.984;2023-05-10T07:40:45;0.20;;;0.20;;
49614;SDS011;35517;45.272;9.984;2023-05-10T07:43:12;0.00;;;0.00;;
49614;SDS011;35517;45.272;9.984;2023-05-10T07:45:38;0.00;;;0.00;;
49614;SDS011;35517;45.272;9.984;2023-05-10T07:48:04;0.00;;;0.00;;
49614;SDS011;35517;45.272;9.984;2023-05-10T07:50:31;0.47;;;0.47;;
49614;SDS011;35517;45.272;9.984;2023-05-10T07:52:57;0.30;;;0.28;;
49614;SDS011;35517;45.272;9.984;2023-05-10T07:55:24;0.00;;;0.00;;
49614;SDS011;35517;45.272;9.984;2023-05-10T07:57:51;0.22;;;0.22;;
49614;SDS011;35517;45.272;9.984;2023-05-10T08:00:18;0.17;;;0.17;;
49614;SDS011;35517;45.272;9.984;2023-05-10T08:02:45;0.10;;;0.10;;
49614;SDS011;35517;45.272;9.984;2023-05-10T08:05:12;0.35;;;0.35;;
49614;SDS011;35517;45.272;9.984;2023-05-10T08:07:38;0.45;;;0.20;;
49614;SDS011;35517;45.272;9.984;2023-05-10T08:10:05;0.00;;;0.00;;
49614;SDS011;35517;45.272;9.984;2023-05-10T08:12:32;0.03;;;0.03;;
49614;SDS011;35517;45.272;9.984;2023-05-10T08:14:58;0.03;;;0.03;;
49614;SDS011;35517;45.272;9.984;2023-05-10T08:17:25;0.00;;;0.00;;
49614;SDS011;35517;45.272;9.984;2023-05-10T08:19:51;0.13;;;0.13;;
49614;SDS011;35517;45.272;9.984;2023-05-10T08:22:18;0.52;;;0.40;;
49614;SDS011;35517;45.272;9.984;2023-05-10T08:24:44;0.40;;;0.40;;
49614;SDS011;35517;45.272;9.984;2023-05-10T08:27:11;0.00;;;0.00;;
49614;SDS011;35517;45.272;9.984;2023-05-10T08:29:38;0.00;;;0.00;;
49614;SDS011;35517;45.272;9.984;2023-05-10T08:32:04;0.00;;;0.00;;
49614;SDS011;35517;45.272;9.984;2023-05-10T08:34:31;0.00;;;0.00;;
49614;SDS011;35517;45.272;9.984;2023-05-10T08:36:57;0.00;;;0.00;;
49614;SDS011;35517;45.272;9.984;2023-05-10T08:39:24;0.25;;;0.25;;
49614;SDS011;35517;45.272;9.984;2023-05-10T08:41:50;0.00;;;0.00;;
49614;SDS011;35517;45.272;9.984;2023-05-10T08:44:18;0.00;;;0.00;;
49614;SDS011;35517;45.272;9.984;2023-05-10T08:46:46;0.08;;;0.08;;
49614;SDS011;35517;45.272;9.984;2023-05-10T08:49:16;0.00;;;0.00;;
49614;SDS011;35517;45.272;9.984;2023-05-10T08:51:44;0.08;;;0.08;;
49614;SDS011;35517;45.272;9.984;2023-05-10T08:54:13;0.00;;;0.00;;
49614;SDS011;35517;45.272;9.984;2023-05-10T08:56:40;0.00;;;0.00;;
49614;SDS011;35517;45.272;9.984;2023-05-10T08:59:06;0.00;;;0.00;;
49614;SDS011;35517;45.272;9.984;2023-05-10T09:01:33;0.00;;;0.00;;
49614;SDS011;35517;45.272;9.984;2023-05-10T09:04:01;0.15;;;0.15;;
49614;SDS011;35517;45.272;9.984;2023-05-10T09:06:28;0.00;;;0.00;;
49614;SDS011;35517;45.272;9.984;2023-05-10T09:08:55;0.03;;;0.03;;
49614;SDS011;35517;45.272;9.984;2023-05-10T09:11:21;0.00;;;0.00;;
49614;SDS011;35517;45.272;9.984;2023-05-10T09:13:48;0.10;;;0.10;;
49614;SDS011;35517;45.272;9.984;2023-05-10T09:16:15;0.00;;;0.00;;
49614;SDS011;35517;45.272;9.984;2023-05-10T09:18:42;0.20;;;0.20;;
49614;SDS011;35517;45.272;9.984;2023-05-10T09:21:08;0.20;;;0.20;;
49614;SDS011;35517;45.272;9.984;2023-05-10T09:23:35;0.00;;;0.00;;
49614;SDS011;35517;45.272;9.984;2023-05-10T09:26:06;0.20;;;0.20;;
49614;SDS011;35517;45.272;9.984;2023-05-10T09:34:16;0.00;;;0.00;;
49614;SDS011;35517;45.272;9.984;2023-05-10T09:36:50;0.00;;;0.00;;
49614;SDS011;35517;45.272;9.984;2023-05-10T09:39:17;0.00;;;0.00;;
49614;SDS011;35517;45.272;9.984;2023-05-10T09:41:45;0.17;;;0.10;;
49614;SDS011;35517;45.272;9.984;2023-05-10T09:44:11;0.30;;;0.30;;
49614;SDS011;35517;45.272;9.984;2023-05-10T09:46:38;0.20;;;0.20;;
49614;SDS011;35517;45.272;9.984;2023-05-10T09:49:04;0.00;;;0.00;;
49614;SDS011;35517;45.272;9.984;2023-05-10T09:51:32;0.00;;;0.00;;
49614;SDS011;35517;45.272;9.984;2023-05-10T09:54:11;0.00;;;0.00;;
49614;SDS011;35517;45.272;9.984;2023-05-10T09:56:38;0.10;;;0.10;;
49614;SDS011;35517;45.272;9.984;2023-05-10T09:59:06;0.03;;;0.03;;
49614;SDS011;35517;45.272;9.984;2023-05-10T10:01:33;0.28;;;0.28;;
49614;SDS011;35517;45.272;9.984;2023-05-10T10:04:04;0.30;;;0.30;;
49614;SDS011;35517;45.272;9.984;2023-05-10T10:06:37;0.00;;;0.00;;
49614;SDS011;35517;45.272;9.984;2023-05-10T10:09:08;0.00;;;0.00;;
49614;SDS011;35517;45.272;9.984;2023-05-10T10:11:35;0.10;;;0.10;;
49614;SDS011;35517;45.272;9.984;2023-05-10T10:14:02;0.00;;;0.00;;
49614;SDS011;35517;45.272;9.984;2023-05-10T10:16:29;0.08;;;0.08;;
49614;SDS011;35517;45.272;9.984;2023-05-10T10:18:55;0.00;;;0.00;;
49614;SDS011;35517;45.272;9.984;2023-05-10T10:21:22;1.40;;;1.00;;
49614;SDS011;35517;45.272;9.984;2023-05-10T10:23:49;0.00;;;0.00;;
49614;SDS011;35517;45.272;9.984;2023-05-10T10:26:16;1.25;;;0.85;;
49614;SDS011;35517;45.272;9.984;2023-05-10T10:33:56;0.20;;;0.20;;
49614;SDS011;35517;45.272;9.984;2023-05-10T10:36:25;0.00;;;0.00;;
49614;SDS011;35517;45.272;9.984;2023-05-10T10:41:35;0.00;;;0.00;;
49614;SDS011;35517;45.272;9.984;2023-05-10T10:52:27;0.08;;;0.08;;
49614;SDS011;35517;45.272;9.984;2023-05-10T10:57:27;0.13;;;0.13;;
49614;SDS011;35517;45.272;9.984;2023-05-10T11:05:23;0.00;;;0.00;;
49614;SDS011;35517;45.272;9.984;2023-05-10T11:07:54;0.00;;;0.00;;
49614;SDS011;35517;45.272;9.984;2023-05-10T11:10:21;0.00;;;0.00;;
49614;SDS011;35517;45.272;9.984;2023-05-10T11:13:06;0.30;;;0.25;;
49614;SDS011;35517;45.272;9.984;2023-05-10T11:15:37;0.10;;;0.10;;
49614;SDS011;35517;45.272;9.984;2023-05-10T11:18:19;0.10;;;0.10;;
49614;SDS011;35517;45.272;9.984;2023-05-10T11:20:52;0.77;;;0.77;;
49614;SDS011;35517;45.272;9.984;2023-05-10T11:23:19;0.13;;;0.13;;
49614;SDS011;35517;45.272;9.984;2023-05-10T11:25:47;1.17;;;0.22;;
49614;SDS011;35517;45.272;9.984;2023-05-10T11:28:14;0.10;;;0.10;;
49614;SDS011;35517;45.272;9.984;2023-05-10T11:30:41;0.15;;;0.15;;
49614;SDS011;35517;45.272;9.984;2023-05-10T11:33:08;0.00;;;0.00;;
49614;SDS011;35517;45.272;9.984;2023-05-10T11:35:38;0.90;;;0.40;;
49614;SDS011;35517;45.272;9.984;2023-05-10T11:38:08;0.00;;;0.00;;
49614;SDS011;35517;45.272;9.984;2023-05-10T11:40:35;0.15;;;0.15;;
49614;SDS011;35517;45.272;9.984;2023-05-10T11:43:02;0.20;;;0.20;;
49614;SDS011;35517;45.272;9.984;2023-05-10T11:45:31;0.00;;;0.00;;
49614;SDS011;35517;45.272;9.984;2023-05-10T11:47:58;0.05;;;0.05;;
49614;SDS011;35517;45.272;9.984;2023-05-10T11:50:25;1.75;;;0.35;;
49614;SDS011;35517;45.272;9.984;2023-05-10T11:52:52;0.10;;;0.10;;
49614;SDS011;35517;45.272;9.984;2023-05-10T11:55:18;1.13;;;0.63;;
49614;SDS011;35517;45.272;9.984;2023-05-10T11:57:45;0.00;;;0.00;;
49614;SDS011;35517;45.272;9.984;2023-05-10T12:00:12;0.00;;;0.00;;
49614;SDS011;35517;45.272;9.984;2023-05-10T12:02:41;0.00;;;0.00;;
49614;SDS011;35517;45.272;9.984;2023-05-10T12:05:08;1.50;;;0.63;;
49614;SDS011;35517;45.272;9.984;2023-05-10T12:07:35;0.28;;;0.17;;
49614;SDS011;35517;45.272;9.984;2023-05-10T12:10:06;0.00;;;0.00;;
49614;SDS011;35517;45.272;9.984;2023-05-10T12:12:37;0.07;;;0.07;;
49614;SDS011;35517;45.272;9.984;2023-05-10T12:15:05;0.00;;;0.00;;
49614;SDS011;35517;45.272;9.984;2023-05-10T12:17:32;0.00;;;0.00;;
49614;SDS011;35517;45.272;9.984;2023-05-10T12:19:59;0.40;;;0.40;;
49614;SDS011;35517;45.272;9.984;2023-05-10T12:22:39;0.22;;;0.22;;
49614;SDS011;35517;45.272;9.984;2023-05-10T12:25:07;0.00;;;0.00;;
49614;SDS011;35517;45.272;9.984;2023-05-10T12:27:34;0.00;;;0.00;;
49614;SDS011;35517;45.272;9.984;2023-05-10T12:30:01;0.00;;;0.00;;
49614;SDS011;35517;45.272;9.984;2023-05-10T12:32:40;1.73;;;0.32;;
49614;SDS011;35517;45.272;9.984;2023-05-10T12:35:07;0.10;;;0.10;;
49614;SDS011;35517;45.272;9.984;2023-05-10T12:37:34;0.00;;;0.00;;
49614;SDS011;35517;45.272;9.984;2023-05-10T12:40:07;0.00;;;0.00;;
49614;SDS011;35517;45.272;9.984;2023-05-10T12:42:35;0.10;;;0.10;;
49614;SDS011;35517;45.272;9.984;2023-05-10T12:45:02;0.22;;;0.22;;
49614;SDS011;35517;45.272;9.984;2023-05-10T12:47:29;0.00;;;0.00;;
49614;SDS011;35517;45.272;9.984;2023-05-10T12:49:56;0.17;;;0.17;;
49614;SDS011;35517;45.272;9.984;2023-05-10T12:52:23;0.32;;;0.32;;
49614;SDS011;35517;45.272;9.984;2023-05-10T12:54:49;0.00;;;0.00;;
49614;SDS011;35517;45.272;9.984;2023-05-10T12:57:16;0.00;;;0.00;;
49614;SDS011;35517;45.272;9.984;2023-05-10T12:59:43;0.00;;;0.00;;
49614;SDS011;35517;45.272;9.984;2023-05-10T13:02:10;0.00;;;0.00;;
49614;SDS011;35517;45.272;9.984;2023-05-10T13:04:37;0.00;;;0.00;;
49614;SDS011;35517;45.272;9.984;2023-05-10T13:07:05;0.55;;;0.20;;
49614;SDS011;35517;45.272;9.984;2023-05-10T13:09:32;0.25;;;0.25;;
49614;SDS011;35517;45.272;9.984;2023-05-10T13:11:58;0.20;;;0.20;;
49614;SDS011;35517;45.272;9.984;2023-05-10T13:14:25;0.10;;;0.10;;
49614;SDS011;35517;45.272;9.984;2023-05-10T13:16:51;0.00;;;0.00;;
49614;SDS011;35517;45.272;9.984;2023-05-10T13:19:18;0.10;;;0.10;;
49614;SDS011;35517;45.272;9.984;2023-05-10T13:21:45;0.00;;;0.00;;
49614;SDS011;35517;45.272;9.984;2023-05-10T13:24:11;0.55;;;0.55;;
49614;SDS011;35517;45.272;9.984;2023-05-10T13:26:42;0.00;;;0.00;;
49614;SDS011;35517;45.272;9.984;2023-05-10T13:29:09;0.00;;;0.00;;
49614;SDS011;35517;45.272;9.984;2023-05-10T13:31:36;0.13;;;0.13;;
49614;SDS011;35517;45.272;9.984;2023-05-10T13:34:03;0.10;;;0.10;;
49614;SDS011;35517;45.272;9.984;2023-05-10T13:36:29;0.00;;;0.00;;
49614;SDS011;35517;45.272;9.984;2023-05-10T13:38:57;0.00;;;0.00;;
49614;SDS011;35517;45.272;9.984;2023-05-10T13:41:23;0.00;;;0.00;;
49614;SDS011;35517;45.272;9.984;2023-05-10T13:43:51;0.00;;;0.00;;
49614;SDS011;35517;45.272;9.984;2023-05-10T13:46:18;0.00;;;0.00;;
49614;SDS011;35517;45.272;9.984;2023-05-10T13:48:44;0.00;;;0.00;;
49614;SDS011;35517;45.272;9.984;2023-05-10T13:51:11;0.00;;;0.00;;
49614;SDS011;35517;45.272;9.984;2023-05-10T13:53:38;0.00;;;0.00;;
49614;SDS011;35517;45.272;9.984;2023-05-10T13:56:04;0.00;;;0.00;;
49614;SDS011;35517;45.272;9.984;2023-05-10T13:58:31;0.20;;;0.20;;
49614;SDS011;35517;45.272;9.984;2023-05-10T14:00:58;0.15;;;0.15;;
49614;SDS011;35517;45.272;9.984;2023-05-10T14:03:25;0.00;;;0.00;;
49614;SDS011;35517;45.272;9.984;2023-05-10T14:05:51;0.00;;;0.00;;
49614;SDS011;35517;45.272;9.984;2023-05-10T14:08:18;0.00;;;0.00;;
49614;SDS011;35517;45.272;9.984;2023-05-10T14:10:44;0.10;;;0.10;;
49614;SDS011;35517;45.272;9.984;2023-05-10T14:13:11;0.10;;;0.10;;
49614;SDS011;35517;45.272;9.984;2023-05-10T14:15:37;0.20;;;0.20;;
49614;SDS011;35517;45.272;9.984;2023-05-10T14:18:04;0.00;;;0.00;;
49614;SDS011;35517;45.272;9.984;2023-05-10T14:20:30;0.00;;;0.00;;
49614;SDS011;35517;45.272;9.984;2023-05-10T14:22:59;0.00;;;0.00;;
49614;SDS011;35517;45.272;9.984;2023-05-10T14:25:25;0.30;;;0.30;;
49614;SDS011;35517;45.272;9.984;2023-05-10T14:27:52;0.05;;;0.05;;
49614;SDS011;35517;45.272;9.984;2023-05-10T14:30:20;0.20;;;0.20;;
49614;SDS011;35517;45.272;9.984;2023-05-10T14:32:46;0.28;;;0.28;;
49614;SDS011;35517;45.272;9.984;2023-05-10T14:35:13;0.00;;;0.00;;
49614;SDS011;35517;45.272;9.984;2023-05-10T14:37:39;0.00;;;0.00;;
49614;SDS011;35517;45.272;9.984;2023-05-10T14:40:06;0.03;;;0.03;;
49614;SDS011;35517;45.272;9.984;2023-05-10T14:42:33;0.10;;;0.10;;
49614;SDS011;35517;45.272;9.984;2023-05-10T14:44:59;0.57;;;0.57;;
49614;SDS011;35517;45.272;9.984;2023-05-10T14:47:26;1.17;;;0.30;;
49614;SDS011;35517;45.272;9.984;2023-05-10T14:49:52;2.03;;;1.08;;
49614;SDS011;35517;45.272;9.984;2023-05-10T14:52:19;0.40;;;0.40;;
49614;SDS011;35517;45.272;9.984;2023-05-10T14:54:45;0.77;;;0.45;;
49614;SDS011;35517;45.272;9.984;2023-05-10T14:57:12;0.28;;;0.28;;
49614;SDS011;35517;45.272;9.984;2023-05-10T14:59:38;0.00;;;0.00;;
49614;SDS011;35517;45.272;9.984;2023-05-10T15:02:05;0.30;;;0.30;;
49614;SDS011;35517;45.272;9.984;2023-05-10T15:04:33;0.60;;;0.60;;
49614;SDS011;35517;45.272;9.984;2023-05-10T15:07:00;5.47;;;1.52;;
49614;SDS011;35517;45.272;9.984;2023-05-10T15:09:26;0.00;;;0.00;;
49614;SDS011;35517;45.272;9.984;2023-05-10T15:11:53;1.27;;;0.05;;
49614;SDS011;35517;45.272;9.984;2023-05-10T15:14:20;0.35;;;0.35;;
49614;SDS011;35517;45.272;9.984;2023-05-10T15:16:46;0.00;;;0.00;;
49614;SDS011;35517;45.272;9.984;2023-05-10T15:19:13;0.08;;;0.08;;
49614;SDS011;35517;45.272;9.984;2023-05-10T15:21:40;0.10;;;0.10;;
49614;SDS011;35517;45.272;9.984;2023-05-10T15:24:09;0.10;;;0.10;;
49614;SDS011;35517;45.272;9.984;2023-05-10T15:26:36;0.00;;;0.00;;
49614;SDS011;35517;45.272;9.984;2023-05-10T15:29:02;0.40;;;0.38;;
49614;SDS011;35517;45.272;9.984;2023-05-10T15:31:29;0.00;;;0.00;;
49614;SDS011;35517;45.272;9.984;2023-05-10T15:33:56;0.00;;;0.00;;
49614;SDS011;35517;45.272;9.984;2023-05-10T15:36:26;0.00;;;0.00;;